Time;durP1;ratioP1;P1;durP2;ratioP2;P2;SDS_P1;SDS_P2;PMS_P1;PMS_P2;Temp;Humidity;BMP_temperature;BMP_pressure;BME280_temperature;BME280_humidity;BME280_pressure;Samples;Min_cycle;Max_cycle;Signal;HPM_P1;HPM_P2
2021/04/06 00:00:36;;;;;;;19.77;11.77;;;;;;;6.73;75.53;99969.25;5030898;28;20264;-76
2021/04/06 00:03:03;;;;;;;29.23;15.18;;;;;;;6.41;74.33;99912.25;5030838;28;20025;-75
2021/04/06 00:05:31;;;;;;;33.65;16.77;;;;;;;6.63;74.41;99961.97;5030305;28;20029;-77
2021/04/06 00:07:59;;;;;;;12.77;9.98;;;;;;;6.68;74.73;99972.41;5031275;28;20108;-76
2021/04/06 00:10:31;;;;;;;18.48;12.38;;;;;;;6.66;75.04;99971.47;5028989;28;20125;-82
2021/04/06 00:12:58;;;;;;;43.25;20.63;;;;;;;6.61;75.17;99968.69;5031143;28;20022;-78
2021/04/06 00:15:25;;;;;;;63.90;27.35;;;;;;;6.58;75.28;99978.81;5029712;28;20033;-78
2021/04/06 00:17:54;;;;;;;51.97;22.55;;;;;;;6.61;75.68;99977.25;5031107;28;20087;-78
2021/04/06 00:20:21;;;;;;;17.67;11.82;;;;;;;6.34;75.54;99945.25;5029741;28;20037;-78
2021/04/06 00:22:48;;;;;;;12.18;9.95;;;;;;;6.24;74.78;99974.72;5030457;28;20056;-76
2021/04/06 00:25:17;;;;;;;11.63;9.75;;;;;;;5.80;76.19;99936.78;5031155;28;20021;-76
2021/04/06 00:27:45;;;;;;;12.02;9.93;;;;;;;5.81;76.75;99958.19;5029701;28;20120;-80
2021/04/06 00:30:14;;;;;;;15.20;13.50;;;;;;;5.74;77.01;99953.56;5030970;28;20399;-80
2021/04/06 00:32:42;;;;;;;18.05;14.90;;;;;;;5.70;77.42;99937.16;5030416;28;20033;-75
2021/04/06 00:35:08;;;;;;;15.55;13.95;;;;;;;5.81;76.85;99945.38;5030508;28;20101;-78
2021/04/06 00:37:44;;;;;;;16.20;13.57;;;;;;;5.83;76.96;99930.94;5030878;28;20044;-80
2021/04/06 00:40:12;;;;;;;14.20;11.68;;;;;;;5.89;76.92;99938.91;5029723;28;20053;-79
2021/04/06 00:42:39;;;;;;;11.77;10.57;;;;;;;5.87;76.67;99922.59;5030668;28;20037;-76
2021/04/06 00:45:10;;;;;;;12.80;10.32;;;;;;;5.85;76.28;99913.97;5030782;28;20033;-77
2021/04/06 00:47:35;;;;;;;14.60;10.45;;;;;;;5.87;76.07;99932.84;5029546;28;20033;-79
2021/04/06 00:50:06;;;;;;;10.90;9.45;;;;;;;5.85;75.67;99928.47;5029075;28;20026;-78
2021/04/06 00:52:32;;;;;;;12.70;8.98;;;;;;;5.57;76.00;99920.34;5029368;28;20535;-77
2021/04/06 00:54:59;;;;;;;12.18;10.25;;;;;;;5.38;76.91;99925.38;5030195;28;20048;-77
2021/04/06 00:57:29;;;;;;;12.25;10.05;;;;;;;4.72;77.91;99816.41;5029625;28;20095;-78
2021/04/06 01:00:17;;;;;;;15.63;11.48;;;;;;;5.28;77.72;99922.38;5030853;28;20088;-77
2021/04/06 01:03:02;;;;;;;14.38;11.00;;;;;;;5.16;78.05;99916.66;5030537;28;20083;-78
2021/04/06 01:05:29;;;;;;;13.13;10.13;;;;;;;4.91;78.97;99884.72;5030338;28;20034;-80
2021/04/06 01:07:58;;;;;;;49.88;22.02;;;;;;;4.99;79.32;99906.41;5029348;28;20499;-76
2021/04/06 01:10:25;;;;;;;21.13;12.93;;;;;;;4.64;79.39;99851.81;5029121;28;20041;-78
2021/04/06 01:12:51;;;;;;;13.75;9.35;;;;;;;4.78;79.41;99897.69;5029488;28;20040;-76
2021/04/06 01:15:18;;;;;;;17.48;11.43;;;;;;;4.79;79.73;99902.00;5029253;28;20558;-75
2021/04/06 01:17:45;;;;;;;40.60;23.10;;;;;;;4.88;80.12;99902.44;5031817;28;20024;-80
2021/04/06 01:20:15;;;;;;;86.57;41.42;;;;;;;4.94;79.99;99884.84;5033867;28;20667;-77
2021/04/06 01:22:45;;;;;;;;;;;;;;;5.14;78.95;99893.50;5035251;28;20033;-78
2021/04/06 01:25:22;;;;;;;14.75;10.88;;;;;;;5.06;78.61;99869.25;5035425;28;19920;-76
2021/04/06 01:27:49;;;;;;;10.95;9.18;;;;;;;5.15;77.85;99881.63;5033030;28;20029;-77
2021/04/06 01:30:22;;;;;;;12.88;10.10;;;;;;;5.11;78.37;99879.69;5033209;28;20116;-77
2021/04/06 01:32:50;;;;;;;12.93;10.45;;;;;;;5.07;79.23;99877.78;5034260;28;20108;-76
2021/04/06 01:35:16;;;;;;;13.43;9.50;;;;;;;5.05;78.82;99876.81;5034271;28;20053;-78
2021/04/06 01:37:42;;;;;;;11.00;9.70;;;;;;;4.98;79.33;99868.84;5032027;28;20041;-79
2021/04/06 01:40:09;;;;;;;12.98;9.98;;;;;;;4.67;79.85;99867.34;5033705;28;20029;-78
2021/04/06 01:42:37;;;;;;;11.90;9.60;;;;;;;4.65;80.39;99842.50;5033016;28;20103;-77
2021/04/06 01:45:07;;;;;;;12.70;10.07;;;;;;;4.65;80.11;99857.84;5033280;28;20036;-75
2021/04/06 01:47:33;;;;;;;49.92;24.00;;;;;;;4.61;80.37;99866.13;5032039;28;20036;-80
2021/04/06 01:49:59;;;;;;;19.27;12.88;;;;;;;4.45;80.80;99844.00;5026385;28;20112;-74
2021/04/06 01:52:25;;;;;;;36.85;18.77;;;;;;;4.51;80.43;99840.09;5027726;28;20076;-77
2021/04/06 01:54:54;;;;;;;14.50;10.90;;;;;;;4.36;79.93;99796.75;5033156;28;20032;-81
2021/04/06 01:57:38;;;;;;;21.05;11.85;;;;;;;4.74;79.12;99857.41;5022500;28;20030;-76
2021/04/06 02:00:23;;;;;;;13.40;10.60;;;;;;;4.54;79.86;99862.38;5031463;28;20395;-76
2021/04/06 02:02:49;;;;;;;13.88;10.10;;;;;;;4.35;79.97;99837.56;5032516;28;20040;-76
2021/04/06 02:05:16;;;;;;;13.73;9.57;;;;;;;4.31;80.48;99863.75;5032998;28;20029;-76
2021/04/06 02:07:45;;;;;;;17.75;10.80;;;;;;;4.32;81.34;99866.38;5019520;28;20029;-79
2021/04/06 02:10:12;;;;;;;17.63;12.13;;;;;;;4.25;80.92;99849.00;5032876;28;20103;-76
2021/04/06 02:12:43;;;;;;;14.10;10.10;;;;;;;4.04;81.24;99856.41;5031506;28;20053;-79
2021/04/06 02:15:11;;;;;;;16.17;10.27;;;;;;;3.68;81.88;99793.22;5031470;28;20045;-78
2021/04/06 02:17:50;;;;;;;16.17;10.57;;;;;;;4.12;82.04;99861.91;5032779;28;20036;-77
2021/04/06 02:20:20;;;;;;;16.52;9.98;;;;;;;3.94;81.21;99810.72;5031780;28;20061;-77
2021/04/06 02:23:03;;;;;;;18.40;12.80;;;;;;;4.12;81.52;99815.94;5032495;28;20029;-78
2021/04/06 02:25:30;;;;;;;13.63;10.50;;;;;;;4.34;80.27;99826.44;5032736;28;20026;-77
2021/04/06 02:27:56;;;;;;;17.40;10.40;;;;;;;4.24;79.45;99782.44;5032721;28;20577;-76
2021/04/06 02:30:31;;;;;;;13.98;10.57;;;;;;;4.54;79.53;99818.94;5031481;28;20029;-76
2021/04/06 02:33:02;;;;;;;11.55;9.95;;;;;;;4.50;79.69;99817.91;5032679;28;20028;-82
2021/04/06 02:35:27;;;;;;;14.63;10.60;;;;;;;4.36;79.45;99809.53;5032496;28;20087;-76
2021/04/06 02:37:54;;;;;;;12.13;10.10;;;;;;;4.19;80.20;99812.91;5032795;28;20041;-75
2021/04/06 02:40:22;;;;;;;13.33;11.57;;;;;;;3.98;81.22;99828.84;5032333;28;20025;-76
2021/04/06 02:42:49;;;;;;;16.00;12.17;;;;;;;3.82;82.22;99813.50;5031937;28;20507;-74
2021/04/06 02:45:23;;;;;;;13.90;11.43;;;;;;;3.77;82.33;99809.84;5032498;28;20411;-77
2021/04/06 02:47:50;;;;;;;15.50;11.30;;;;;;;3.58;82.21;99767.13;5031682;28;20104;-77
2021/04/06 02:50:20;;;;;;;14.37;11.03;;;;;;;3.81;82.28;99827.94;5031138;28;20122;-74
2021/04/06 02:52:46;;;;;;;19.63;13.00;;;;;;;3.79;82.27;99809.13;5032284;28;20025;-76
2021/04/06 02:55:12;;;;;;;83.93;35.63;;;;;;;3.90;82.26;99822.47;5032046;28;20029;-77
2021/04/06 02:57:41;;;;;;;28.13;17.60;;;;;;;3.93;81.86;99834.53;5031575;28;20041;-76
2021/04/06 03:00:08;;;;;;;19.02;13.88;;;;;;;3.85;82.08;99834.09;5030994;28;20057;-76
2021/04/06 03:02:40;;;;;;;24.00;16.07;;;;;;;3.84;82.14;99832.34;5026492;28;20062;-76
2021/04/06 03:05:07;;;;;;;35.03;21.90;;;;;;;3.92;81.65;99814.88;5043536;28;20029;-79
2021/04/06 03:07:43;;;;;;;21.97;16.07;;;;;;;3.76;81.04;99797.88;5030582;28;20484;-76
2021/04/06 03:10:19;;;;;;;22.00;16.20;;;;;;;3.79;81.49;99798.91;5032219;28;20053;-76
2021/04/06 03:12:46;;;;;;;19.57;15.23;;;;;;;4.09;81.53;99842.19;5031678;28;20026;-76
2021/04/06 03:15:12;;;;;;;18.67;13.43;;;;;;;4.02;81.14;99820.53;5030703;28;20029;-77
2021/04/06 03:17:45;;;;;;;18.83;13.83;;;;;;;3.86;82.05;99831.63;5030622;28;20058;-75
2021/04/06 03:20:13;;;;;;;20.93;14.83;;;;;;;3.96;82.35;99827.91;5031504;28;20502;-76
2021/04/06 03:22:38;;;;;;;41.40;23.07;;;;;;;3.72;82.16;99774.72;5031876;28;20048;-75
2021/04/06 03:25:05;;;;;;;58.47;35.93;;;;;;;3.92;82.46;99795.31;5030284;28;20025;-74
2021/04/06 03:27:31;;;;;;;30.47;19.70;;;;;;;3.89;82.90;99801.16;5031539;28;20037;-75
2021/04/06 03:29:57;;;;;;;23.70;15.60;;;;;;;3.94;83.00;99811.63;5048935;28;20045;-75
2021/04/06 03:32:24;;;;;;;31.33;22.47;;;;;;;4.03;82.65;99809.53;5048961;28;20045;-75
2021/04/06 03:34:51;;;;;;;19.80;16.30;;;;;;;4.15;82.32;99804.19;5048882;28;20130;-76
2021/04/06 03:37:17;;;;;;;21.87;17.13;;;;;;;3.94;82.66;99755.44;5032353;28;20128;-76
2021/04/06 03:39:42;;;;;;;19.27;15.43;;;;;;;4.26;82.58;99802.19;5048931;28;20124;-76
2021/04/06 03:42:08;;;;;;;17.23;13.17;;;;;;;4.12;82.62;99795.50;5048917;28;20523;-76
2021/04/06 03:44:34;;;;;;;16.37;12.43;;;;;;;4.13;82.91;99789.59;5048782;28;20036;-76
2021/04/06 03:47:02;;;;;;;16.63;12.50;;;;;;;4.08;83.12;99811.47;5032237;28;20024;-75
2021/04/06 03:49:30;;;;;;;17.37;12.13;;;;;;;3.99;82.98;99806.75;5031954;28;20513;-76
2021/04/06 03:52:07;;;;;;;16.97;12.17;;;;;;;4.12;83.31;99801.47;5034878;28;20029;-76
2021/04/06 03:54:40;;;;;;;226.60;85.00;;;;;;;4.37;83.32;99812.94;5048722;28;20025;-76
2021/04/06 03:57:22;;;;;;;35.07;18.37;;;;;;;4.45;81.98;99815.88;5049132;28;20040;-76
2021/04/06 03:59:49;;;;;;;27.50;15.07;;;;;;;4.36;82.05;99801.88;5047858;28;20036;-76
2021/04/06 04:02:14;;;;;;;39.40;20.90;;;;;;;4.44;82.57;99812.47;5030966;28;20484;-81
2021/04/06 04:04:40;;;;;;;24.58;13.90;;;;;;;4.40;82.07;99805.47;5029661;28;20032;-76
2021/04/06 04:07:07;;;;;;;21.50;13.43;;;;;;;4.22;82.39;99795.16;5030725;28;20030;-76
2021/04/06 04:09:33;;;;;;;24.13;13.13;;;;;;;4.05;82.81;99787.50;5031020;28;20427;-75
2021/04/06 04:11:58;;;;;;;17.53;12.87;;;;;;;3.97;82.63;99793.88;5030844;28;20506;-74
2021/04/06 04:14:24;;;;;;;22.10;15.13;;;;;;;3.71;83.63;99795.97;5031102;28;20033;-77
2021/04/06 04:16:49;;;;;;;51.20;28.23;;;;;;;3.40;84.73;99790.84;5030811;28;20028;-76
2021/04/06 04:19:15;;;;;;;35.77;24.97;;;;;;;3.43;85.64;99806.34;5029774;28;20027;-76
2021/04/06 04:21:40;;;;;;;28.97;22.90;;;;;;;3.34;85.60;99793.97;5030913;28;20105;-75
2021/04/06 04:24:06;;;;;;;38.57;27.77;;;;;;;3.40;86.03;99806.16;5029092;28;20030;-75
2021/04/06 04:26:31;;;;;;;41.70;28.17;;;;;;;3.49;85.88;99798.13;5030997;28;20112;-75
2021/04/06 04:28:57;;;;;;;66.03;43.23;;;;;;;3.29;86.29;99779.19;5030890;28;20029;-77
2021/04/06 04:31:22;;;;;;;37.20;25.53;;;;;;;3.27;86.54;99756.16;5029584;28;20087;-76
2021/04/06 04:33:48;;;;;;;24.73;17.53;;;;;;;3.28;86.80;99747.69;5031045;28;20102;-76
2021/04/06 04:36:13;;;;;;;24.00;17.87;;;;;;;3.56;86.97;99785.81;5030772;28;20048;-76
2021/04/06 04:38:38;;;;;;;19.33;14.70;;;;;;;3.23;87.11;99744.88;5030901;28;20040;-76
2021/04/06 04:41:04;;;;;;;18.20;13.43;;;;;;;3.46;87.36;99796.28;5030200;28;20403;-77
2021/04/06 04:43:30;;;;;;;17.40;13.50;;;;;;;3.47;87.50;99805.69;5031322;28;20068;-75
2021/04/06 04:45:55;;;;;;;22.73;15.53;;;;;;;3.48;87.95;99778.53;5030791;28;20026;-76
2021/04/06 04:48:21;;;;;;;22.77;15.40;;;;;;;3.53;87.87;99762.66;5030720;28;20037;-76
2021/04/06 04:50:46;;;;;;;21.93;15.20;;;;;;;3.66;87.47;99804.16;5030889;28;20037;-76
2021/04/06 04:53:12;;;;;;;19.17;14.37;;;;;;;3.60;87.88;99801.28;5032728;28;20175;-76
2021/04/06 04:55:38;;;;;;;21.03;14.83;;;;;;;3.56;88.33;99774.69;5033148;28;20519;-76
2021/04/06 04:58:03;;;;;;;20.07;15.13;;;;;;;3.76;88.19;99792.75;5034006;28;20037;-76
2021/04/06 05:00:29;;;;;;;20.73;14.90;;;;;;;3.87;88.23;99781.44;5033535;28;20037;-78
2021/04/06 05:02:54;;;;;;;21.90;15.20;;;;;;;3.78;88.01;99793.72;5034172;28;20034;-76
2021/04/06 05:05:20;;;;;;;29.17;17.63;;;;;;;3.74;88.27;99785.03;5032761;28;20483;-75
2021/04/06 05:07:46;;;;;;;30.70;17.83;;;;;;;3.88;88.94;99789.16;5034319;28;20472;-75
2021/04/06 05:10:14;;;;;;;25.67;15.87;;;;;;;3.65;88.98;99748.78;5033694;28;20056;-75
2021/04/06 05:12:41;;;;;;;117.13;43.87;;;;;;;3.95;89.65;99787.84;5022610;28;20033;-76
2021/04/06 05:15:08;;;;;;;25.47;15.40;;;;;;;3.96;89.80;99781.94;5024985;28;20025;-74
2021/04/06 05:17:34;;;;;;;23.17;16.53;;;;;;;3.87;90.43;99773.78;5033639;28;20032;-74
2021/04/06 05:20:00;;;;;;;68.10;30.33;;;;;;;3.92;90.49;99762.13;5032344;28;20443;-77
2021/04/06 05:22:26;;;;;;;23.30;16.23;;;;;;;4.13;90.48;99776.81;5033133;28;20083;-78
2021/04/06 05:24:51;;;;;;;22.03;14.70;;;;;;;4.11;90.79;99781.84;5031314;28;20061;-77
2021/04/06 05:27:17;;;;;;;19.97;15.57;;;;;;;4.21;90.26;99778.97;5031972;28;20116;-75
2021/04/06 05:29:43;;;;;;;20.77;14.93;;;;;;;4.28;90.82;99766.50;5032885;28;20449;-77
2021/04/06 05:32:08;;;;;;;20.03;14.83;;;;;;;4.29;91.38;99784.47;5033337;28;20030;-78
2021/04/06 05:34:34;;;;;;;23.07;16.10;;;;;;;4.40;91.37;99764.56;5032813;28;20029;-75
2021/04/06 05:37:00;;;;;;;23.17;16.40;;;;;;;4.43;91.56;99749.38;5031291;28;20471;-80
2021/04/06 05:39:25;;;;;;;26.67;18.15;;;;;;;4.63;91.89;99763.13;5032080;28;20029;-79
2021/04/06 05:41:51;;;;;;;24.52;15.55;;;;;;;4.66;91.43;99749.63;5032876;28;20028;-76
2021/04/06 05:44:17;;;;;;;25.55;16.17;;;;;;;4.46;91.39;99720.53;5033529;28;20036;-76
2021/04/06 05:46:49;;;;;;;32.35;19.67;;;;;;;4.68;91.54;99737.81;5033429;28;20024;-78
2021/04/06 05:49:22;;;;;;;38.10;22.25;;;;;;;4.69;91.12;99737.88;5024956;28;20033;-78
2021/04/06 05:51:47;;;;;;;70.90;27.17;;;;;;;4.54;91.35;99747.34;5032524;28;20104;-78
2021/04/06 05:54:16;;;;;;;288.50;95.03;;;;;;;4.65;92.26;99773.47;5022936;28;20174;-80
2021/04/06 05:56:42;;;;;;;27.02;18.35;;;;;;;4.67;91.88;99757.38;5033504;28;20067;-76
2021/04/06 05:59:09;;;;;;;29.52;17.15;;;;;;;4.75;90.83;99757.75;5033122;28;20026;-77
2021/04/06 06:01:42;;;;;;;114.90;42.72;;;;;;;4.75;90.74;99744.97;5032927;28;20135;-76
2021/04/06 06:04:14;;;;;;;38.88;21.58;;;;;;;4.78;90.87;99741.69;5032872;28;20032;-76
2021/04/06 06:06:40;;;;;;;26.48;17.08;;;;;;;4.81;91.42;99741.81;5032866;28;20034;-74
2021/04/06 06:09:09;;;;;;;24.73;17.40;;;;;;;4.73;92.01;99725.25;5032741;28;20048;-74
2021/04/06 06:11:57;;;;;;;49.67;32.42;;;;;;;4.78;91.97;99723.78;5033186;28;20045;-74
2021/04/06 06:14:30;;;;;;;46.90;33.88;;;;;;;4.81;91.88;99726.47;5032880;28;20028;-81
2021/04/06 06:16:56;;;;;;;40.90;28.10;;;;;;;4.67;92.00;99692.56;5031805;28;20029;-76
2021/04/06 06:19:22;;;;;;;27.13;17.40;;;;;;;4.79;92.54;99733.22;5032247;28;20021;-76
2021/04/06 06:21:52;;;;;;;22.83;17.40;;;;;;;4.62;92.28;99730.72;5030863;28;20025;-75
2021/04/06 06:24:29;;;;;;;23.85;18.05;;;;;;;4.56;93.25;99737.19;5031793;28;20427;-75
2021/04/06 06:26:56;;;;;;;24.95;17.35;;;;;;;4.51;93.67;99732.75;5031229;28;20034;-74
2021/04/06 06:29:25;;;;;;;53.95;32.67;;;;;;;4.62;94.07;99735.84;5031802;28;20443;-74
2021/04/06 06:31:55;;;;;;;28.63;19.93;;;;;;;4.59;93.88;99728.00;5031015;28;20037;-74
2021/04/06 06:34:38;;;;;;;78.72;42.90;;;;;;;4.62;94.48;99728.16;5029455;28;20412;-78
2021/04/06 06:37:09;;;;;;;46.10;28.20;;;;;;;4.65;94.06;99735.09;5031984;28;20115;-75
2021/04/06 06:39:40;;;;;;;35.58;20.10;;;;;;;4.66;94.39;99750.53;5030127;28;20028;-79
2021/04/06 06:42:11;;;;;;;42.90;24.40;;;;;;;4.36;94.09;99714.97;5019174;28;20041;-76
2021/04/06 06:44:37;;;;;;;85.60;31.73;;;;;;;4.42;94.67;99716.94;5014338;28;20419;-74
2021/04/06 06:47:12;;;;;;;36.90;21.45;;;;;;;4.77;94.36;99755.28;5013027;28;20513;-74
2021/04/06 06:49:40;;;;;;;49.30;24.17;;;;;;;4.74;93.81;99761.13;5028862;28;20031;-74
2021/04/06 06:52:26;;;;;;;144.13;54.67;;;;;;;4.96;94.16;99767.25;5031976;28;20033;-73
2021/04/06 06:54:58;;;;;;;133.80;51.70;;;;;;;4.88;93.76;99738.75;5031682;28;20025;-76
2021/04/06 06:57:30;;;;;;;162.43;69.47;;;;;;;4.99;93.59;99752.94;5031928;28;20037;-75
2021/04/06 07:00:06;;;;;;;39.28;22.83;;;;;;;4.97;93.88;99749.44;5030084;28;20500;-74
2021/04/06 07:02:31;;;;;;;28.92;21.10;;;;;;;4.91;94.86;99751.72;5031738;28;20100;-75
2021/04/06 07:05:11;;;;;;;60.85;29.30;;;;;;;4.97;95.01;99744.34;5022268;28;20476;-74
2021/04/06 07:07:57;;;;;;;76.00;37.20;;;;;;;5.00;96.01;99752.13;5031826;28;20515;-74
2021/04/06 07:10:24;;;;;;;58.13;30.35;;;;;;;5.11;96.46;99736.41;5032142;28;20118;-74
2021/04/06 07:13:05;;;;;;;28.13;19.65;;;;;;;5.32;96.08;99726.28;5030443;28;20076;-74
2021/04/06 07:15:32;;;;;;;30.27;21.17;;;;;;;5.46;95.49;99742.31;5028935;28;20033;-74
2021/04/06 07:18:18;;;;;;;27.08;20.90;;;;;;;5.45;94.66;99738.84;5031755;28;20411;-74
2021/04/06 07:20:49;;;;;;;32.45;21.95;;;;;;;5.44;94.37;99715.75;5027857;28;20121;-73
2021/04/06 07:23:22;;;;;;;37.45;28.73;;;;;;;5.48;94.64;99712.50;5019595;28;20484;-75
2021/04/06 07:25:49;;;;;;;27.13;20.73;;;;;;;5.16;94.12;99661.63;5030059;28;20476;-73
2021/04/06 07:28:15;;;;;;;32.22;21.90;;;;;;;5.24;94.80;99669.66;5031300;28;20034;-73
2021/04/06 07:30:42;;;;;;;26.98;19.05;;;;;;;5.54;94.98;99699.13;5031290;28;20491;-74
2021/04/06 07:33:08;;;;;;;29.90;20.30;;;;;;;5.54;95.32;99694.00;5030066;28;20029;-74
2021/04/06 07:35:36;;;;;;;34.58;22.83;;;;;;;5.55;95.04;99688.94;5019760;28;20056;-74
2021/04/06 07:38:01;;;;;;;73.03;32.42;;;;;;;5.48;95.74;99682.69;5029214;28;20067;-74
2021/04/06 07:40:31;;;;;;;36.10;20.60;;;;;;;5.69;95.64;99704.06;5026593;28;20075;-75
2021/04/06 07:42:57;;;;;;;31.90;19.85;;;;;;;5.66;95.97;99708.22;5030746;28;20021;-74
2021/04/06 07:45:22;;;;;;;24.67;18.88;;;;;;;5.76;95.56;99724.00;5029961;28;20117;-74
2021/04/06 07:48:08;;;;;;;225.15;72.72;;;;;;;5.78;94.58;99715.59;5031032;28;20072;-75
2021/04/06 07:50:36;;;;;;;26.98;19.00;;;;;;;5.83;94.80;99708.97;5028341;28;20060;-74
2021/04/06 07:53:20;;;;;;;291.55;105.10;;;;;;;5.65;94.27;99667.19;5023512;28;20068;-74
2021/04/06 07:55:46;;;;;;;32.83;22.23;;;;;;;5.94;94.14;99700.88;5025018;28;20038;-76
2021/04/06 07:58:51;;;;;;;113.90;46.42;;;;;;;6.02;93.78;99720.03;5026293;28;20444;-74
2021/04/06 08:01:27;;;;;;;48.45;26.38;;;;;;;6.16;94.83;99718.06;5026651;28;20555;-74
2021/04/06 08:03:53;;;;;;;74.57;34.75;;;;;;;6.27;93.94;99719.41;5028819;28;20026;-74
2021/04/06 08:06:23;;;;;;;26.55;19.15;;;;;;;6.28;94.38;99710.00;5028910;28;20114;-74
2021/04/06 08:08:49;;;;;;;24.33;19.08;;;;;;;6.42;93.58;99719.16;5028855;28;20033;-76
2021/04/06 08:11:14;;;;;;;23.13;17.65;;;;;;;6.40;93.96;99719.91;5028993;28;20147;-74
2021/04/06 08:13:42;;;;;;;21.33;15.27;;;;;;;6.55;93.96;99711.97;5028647;28;20068;-74
2021/04/06 08:16:15;;;;;;;25.50;18.13;;;;;;;6.64;92.94;99714.91;5025850;28;20516;-73
2021/04/06 08:18:54;;;;;;;19.95;16.58;;;;;;;6.68;92.99;99698.84;5012472;28;20021;-74
2021/04/06 08:21:21;;;;;;;21.92;17.70;;;;;;;6.50;95.69;99634.84;5029718;28;20491;-74
2021/04/06 08:23:47;;;;;;;27.10;20.05;;;;;;;6.92;94.62;99700.63;5031331;28;20061;-75
2021/04/06 08:26:27;;;;;;;192.75;74.55;;;;;;;7.06;92.95;99673.78;5031491;28;20034;-74
2021/04/06 08:28:53;;;;;;;24.52;16.23;;;;;;;7.16;92.99;99692.13;5033174;28;20034;-74
2021/04/06 08:31:19;;;;;;;21.88;16.98;;;;;;;7.38;92.24;99704.94;5035072;28;20101;-74
2021/04/06 08:33:44;;;;;;;35.42;22.42;;;;;;;7.58;89.86;99704.81;5035218;28;20036;-74
2021/04/06 08:36:10;;;;;;;46.00;24.35;;;;;;;7.82;90.81;99667.97;5033715;28;20462;-74
2021/04/06 08:38:38;;;;;;;29.67;19.48;;;;;;;7.68;90.76;99609.25;5049562;28;20183;-75
2021/04/06 08:41:13;;;;;;;25.13;18.30;;;;;;;8.11;89.42;99666.38;5035214;28;20544;-75
2021/04/06 08:43:46;;;;;;;19.58;15.73;;;;;;;8.32;89.42;99650.78;5035106;28;20057;-74
2021/04/06 08:46:23;;;;;;;28.20;18.52;;;;;;;8.15;88.40;99586.00;5034874;28;20034;-75
2021/04/06 08:48:52;;;;;;;26.13;21.98;;;;;;;8.38;87.78;99616.69;5032918;28;20068;-75
2021/04/06 08:51:30;;;;;;;25.92;20.58;;;;;;;8.38;88.88;99620.13;5034844;28;20108;-74
2021/04/06 08:53:56;;;;;;;17.80;14.48;;;;;;;8.41;87.96;99609.97;5034770;28;20048;-76
2021/04/06 08:56:27;;;;;;;20.00;15.23;;;;;;;8.44;87.60;99604.03;5035002;28;20030;-75
2021/04/06 08:59:18;;;;;;;19.95;13.57;;;;;;;8.42;86.68;99587.66;5034837;28;20119;-75
2021/04/06 09:01:53;;;;;;;20.73;14.75;;;;;;;8.51;86.66;99564.84;5034808;28;20033;-75
2021/04/06 09:04:24;;;;;;;21.67;15.73;;;;;;;8.51;86.08;99585.44;5033493;28;20029;-75
2021/04/06 09:06:50;;;;;;;20.27;14.43;;;;;;;8.52;85.82;99592.34;5034414;28;20442;-75
2021/04/06 09:09:38;;;;;;;16.50;13.73;;;;;;;8.67;84.85;99589.34;5034472;28;20041;-75
2021/04/06 09:12:05;;;;;;;157.30;67.05;;;;;;;8.70;86.06;99566.28;5015071;28;20041;-75
2021/04/06 09:14:32;;;;;;;25.25;17.45;;;;;;;8.77;86.55;99553.59;5031980;28;20447;-74
2021/04/06 09:16:58;;;;;;;17.23;12.45;;;;;;;8.83;84.32;99566.66;5032003;28;20041;-74
2021/04/06 09:19:25;;;;;;;18.15;13.50;;;;;;;8.74;84.76;99554.38;5015473;28;20042;-75
2021/04/06 09:21:54;;;;;;;17.13;12.88;;;;;;;8.79;84.06;99567.38;4992404;28;20034;-76
2021/04/06 09:24:22;;;;;;;15.52;10.32;;;;;;;8.76;82.95;99573.31;4972939;28;20424;-76
2021/04/06 09:26:50;;;;;;;15.35;12.57;;;;;;;8.78;82.72;99563.94;4972885;28;20038;-75
2021/04/06 09:29:36;;;;;;;23.02;11.63;;;;;;;8.79;82.00;99569.97;4956909;28;20054;-77
2021/04/06 09:32:06;;;;;;;21.50;14.63;;;;;;;8.71;82.42;99575.75;4972791;28;20531;-76
2021/04/06 09:34:34;;;;;;;21.55;13.27;;;;;;;8.16;82.50;99497.75;4971758;28;20043;-76
2021/04/06 09:37:07;;;;;;;21.88;12.70;;;;;;;8.65;81.00;99585.84;4967305;28;20035;-76
2021/04/06 09:39:34;;;;;;;26.63;13.13;;;;;;;8.66;82.45;99587.59;4968174;28;20125;-76
2021/04/06 09:42:01;;;;;;;17.92;12.50;;;;;;;8.73;81.82;99570.63;4971533;28;20162;-80
2021/04/06 09:44:31;;;;;;;16.73;12.50;;;;;;;8.75;81.88;99574.13;4966674;28;20050;-75
2021/04/06 09:47:08;;;;;;;18.42;13.10;;;;;;;8.97;83.65;99596.25;4972579;28;20470;-76
2021/04/06 09:49:45;;;;;;;19.55;14.07;;;;;;;9.18;83.67;99601.16;4972421;28;20035;-76
2021/04/06 09:52:25;;;;;;;14.10;11.90;;;;;;;9.12;82.56;99606.13;4976249;28;20489;-76
2021/04/06 09:54:54;;;;;;;14.40;11.63;;;;;;;9.02;84.33;99604.09;5017726;28;20063;-75
2021/04/06 09:57:22;;;;;;;20.45;14.18;;;;;;;9.29;85.60;99610.88;5022315;28;20026;-76
2021/04/06 09:59:56;;;;;;;14.40;11.38;;;;;;;9.51;82.63;99602.03;5034353;28;21683;-75
2021/04/06 10:02:24;;;;;;;16.38;12.25;;;;;;;9.42;82.85;99594.03;5032625;28;20036;-79
2021/04/06 10:04:51;;;;;;;16.15;11.73;;;;;;;9.51;81.75;99558.22;5033410;28;20033;-77
2021/04/06 10:07:24;;;;;;;17.25;13.13;;;;;;;9.76;81.16;99598.41;5024254;28;20029;-76
2021/04/06 10:09:55;;;;;;;26.88;19.10;;;;;;;9.76;81.24;99564.88;5042209;28;20057;-78
2021/04/06 10:12:23;;;;;;;16.65;12.00;;;;;;;9.98;78.48;99574.03;5041082;28;20116;-79
2021/04/06 10:14:49;;;;;;;17.27;12.95;;;;;;;9.99;81.13;99574.91;5039582;28;20033;-81
2021/04/06 10:17:18;;;;;;;17.52;14.38;;;;;;;10.12;81.25;99553.75;5041695;28;20037;-78
2021/04/06 10:19:57;;;;;;;16.80;13.35;;;;;;;10.36;83.30;99504.44;5050359;28;20045;-80
2021/04/06 10:22:25;;;;;;;14.63;11.32;;;;;;;10.04;77.92;99491.69;5049999;28;20037;-75
2021/04/06 10:24:55;;;;;;;14.93;12.70;;;;;;;10.30;82.98;99457.84;5049794;28;20025;-80
2021/04/06 10:27:28;;;;;;;43.33;22.77;;;;;;;10.55;81.56;99435.16;5050299;28;20037;-77
2021/04/06 10:29:59;;;;;;;95.60;40.45;;;;;;;10.64;79.56;99456.00;5049479;28;20041;-78
2021/04/06 10:32:36;;;;;;;18.42;14.85;;;;;;;10.68;79.12;99454.38;5047709;28;20051;-78
2021/04/06 10:35:27;;;;;;;23.88;16.52;;;;;;;10.57;80.03;99425.75;5029040;28;20499;-79
2021/04/06 10:37:58;;;;;;;23.67;14.48;;;;;;;10.52;81.37;99362.88;5020837;28;20041;-77
2021/04/06 10:40:32;;;;;;;13.15;11.30;;;;;;;10.31;79.20;99271.25;5021732;28;20088;-81
2021/04/06 10:43:06;;;;;;;16.90;13.57;;;;;;;10.54;80.68;99290.63;5003850;28;20120;-78
2021/04/06 10:45:33;;;;;;;33.53;21.15;;;;;;;10.50;80.52;99329.28;5004212;28;20041;-80
2021/04/06 10:48:15;;;;;;;50.97;27.15;;;;;;;10.54;77.22;99410.19;4990417;28;20057;-78
2021/04/06 10:50:48;;;;;;;83.88;38.63;;;;;;;10.21;79.41;99390.59;5000522;28;20125;-79
2021/04/06 10:53:29;;;;;;;24.23;14.88;;;;;;;10.41;79.28;99380.72;5003659;28;20037;-79
2021/04/06 10:56:08;;;;;;;14.77;10.85;;;;;;;10.31;77.74;99377.03;5002864;28;20034;-80
2021/04/06 10:58:38;;;;;;;26.23;16.45;;;;;;;10.23;78.48;99386.34;4992971;28;20550;-78
2021/04/06 11:01:06;;;;;;;17.73;14.55;;;;;;;10.15;77.82;99354.34;5006797;28;20038;-79
2021/04/06 11:03:42;;;;;;;22.58;13.45;;;;;;;10.12;76.94;99378.38;4993167;28;20104;-78
2021/04/06 11:06:37;;;;;;;21.73;13.13;;;;;;;10.51;74.40;99441.97;5003280;28;20397;-79
2021/04/06 11:09:12;;;;;;;15.95;11.73;;;;;;;10.08;76.43;99339.59;5022777;28;20041;-77
2021/04/06 11:11:38;;;;;;;17.17;11.95;;;;;;;10.46;76.06;99435.00;5022829;28;20017;-78
2021/04/06 11:14:08;;;;;;;15.57;11.73;;;;;;;10.18;75.78;99422.34;5021071;28;20029;-78
2021/04/06 11:16:36;;;;;;;18.63;12.02;;;;;;;10.28;76.34;99422.53;5019397;28;20037;-77
2021/04/06 11:19:11;;;;;;;19.50;12.20;;;;;;;9.94;76.04;99396.03;5021764;28;20090;-80
2021/04/06 11:21:51;;;;;;;20.48;12.45;;;;;;;10.40;77.24;99434.88;5022669;28;20029;-79
2021/04/06 11:24:20;;;;;;;19.35;12.32;;;;;;;10.46;75.38;99417.78;5022233;28;20053;-78
2021/04/06 11:26:47;;;;;;;21.57;13.23;;;;;;;10.52;76.00;99417.06;5021973;28;20053;-80
2021/04/06 11:29:14;;;;;;;16.75;13.25;;;;;;;10.68;75.44;99398.44;5020725;28;20034;-78
2021/04/06 11:31:42;;;;;;;17.10;10.75;;;;;;;10.95;74.90;99386.91;5020959;28;20025;-80
2021/04/06 11:34:09;;;;;;;12.95;11.50;;;;;;;11.14;75.84;99374.28;5021930;28;20022;-79
2021/04/06 11:36:35;;;;;;;17.60;10.98;;;;;;;11.36;72.91;99351.41;5020374;28;20030;-77